sensor_id;sensor_type;location;lat;lon;timestamp;P1;durP1;ratioP1;P2;durP2;ratioP2
21611;SDS011;47005;52.292;13.452;2022-10-16T00:01:05;5.97;;;4.35;;
21611;SDS011;47005;52.292;13.452;2022-10-16T00:03:36;7.72;;;4.28;;
21611;SDS011;47005;52.292;13.452;2022-10-16T00:06:01;6.68;;;4.20;;
21611;SDS011;47005;52.292;13.452;2022-10-16T00:08:27;6.63;;;4.00;;
21611;SDS011;47005;52.292;13.452;2022-10-16T00:10:58;11.88;;;5.22;;
21611;SDS011;47005;52.292;13.452;2022-10-16T00:13:32;9.15;;;4.40;;
21611;SDS011;47005;52.292;13.452;2022-10-16T00:15:59;5.75;;;3.90;;
21611;SDS011;47005;52.292;13.452;2022-10-16T00:18:26;5.90;;;3.83;;
21611;SDS011;47005;52.292;13.452;2022-10-16T00:20:52;5.50;;;3.80;;
21611;SDS011;47005;52.292;13.452;2022-10-16T00:23:18;4.63;;;3.50;;
21611;SDS011;47005;52.292;13.452;2022-10-16T00:25:44;5.28;;;3.55;;
21611;SDS011;47005;52.292;13.452;2022-10-16T00:28:18;5.20;;;3.83;;
21611;SDS011;47005;52.292;13.452;2022-10-16T00:30:44;4.95;;;3.20;;
21611;SDS011;47005;52.292;13.452;2022-10-16T00:33:09;4.85;;;3.50;;
21611;SDS011;47005;52.292;13.452;2022-10-16T00:35:35;4.88;;;3.78;;
21611;SDS011;47005;52.292;13.452;2022-10-16T00:38:00;4.50;;;3.30;;
21611;SDS011;47005;52.292;13.452;2022-10-16T00:40:26;4.40;;;3.10;;
21611;SDS011;47005;52.292;13.452;2022-10-16T00:42:53;4.75;;;3.40;;
21611;SDS011;47005;52.292;13.452;2022-10-16T00:45:18;5.10;;;3.65;;
21611;SDS011;47005;52.292;13.452;2022-10-16T00:47:44;4.57;;;3.25;;
21611;SDS011;47005;52.292;13.452;2022-10-16T00:50:27;5.20;;;3.08;;
21611;SDS011;47005;52.292;13.452;2022-10-16T00:52:57;4.07;;;2.58;;
21611;SDS011;47005;52.292;13.452;2022-10-16T00:55:25;4.18;;;3.03;;
21611;SDS011;47005;52.292;13.452;2022-10-16T00:57:51;4.47;;;3.65;;
21611;SDS011;47005;52.292;13.452;2022-10-16T01:00:19;6.07;;;2.92;;
21611;SDS011;47005;52.292;13.452;2022-10-16T01:02:54;5.72;;;3.88;;
21611;SDS011;47005;52.292;13.452;2022-10-16T01:05:22;5.30;;;3.97;;
21611;SDS011;47005;52.292;13.452;2022-10-16T01:07:56;6.35;;;3.15;;
21611;SDS011;47005;52.292;13.452;2022-10-16T01:10:47;5.20;;;3.20;;
21611;SDS011;47005;52.292;13.452;2022-10-16T01:13:24;4.63;;;3.03;;
21611;SDS011;47005;52.292;13.452;2022-10-16T01:16:12;6.43;;;3.38;;
21611;SDS011;47005;52.292;13.452;2022-10-16T01:18:43;6.63;;;3.60;;
21611;SDS011;47005;52.292;13.452;2022-10-16T01:21:30;3.65;;;2.78;;
21611;SDS011;47005;52.292;13.452;2022-10-16T01:29:29;4.75;;;2.92;;
21611;SDS011;47005;52.292;13.452;2022-10-16T01:32:00;6.05;;;2.85;;
21611;SDS011;47005;52.292;13.452;2022-10-16T01:34:33;4.22;;;3.38;;
21611;SDS011;47005;52.292;13.452;2022-10-16T01:37:07;5.05;;;3.80;;
21611;SDS011;47005;52.292;13.452;2022-10-16T01:39:38;6.65;;;3.88;;
21611;SDS011;47005;52.292;13.452;2022-10-16T01:42:24;4.82;;;3.40;;
21611;SDS011;47005;52.292;13.452;2022-10-16T01:44:55;5.63;;;3.10;;
21611;SDS011;47005;52.292;13.452;2022-10-16T01:47:23;4.72;;;2.50;;
21611;SDS011;47005;52.292;13.452;2022-10-16T01:49:50;5.50;;;3.42;;
21611;SDS011;47005;52.292;13.452;2022-10-16T01:52:19;5.07;;;2.88;;
21611;SDS011;47005;52.292;13.452;2022-10-16T01:54:49;5.70;;;3.28;;
21611;SDS011;47005;52.292;13.452;2022-10-16T01:57:18;5.80;;;4.18;;
21611;SDS011;47005;52.292;13.452;2022-10-16T01:59:47;17.75;;;4.55;;
21611;SDS011;47005;52.292;13.452;2022-10-16T02:02:17;8.23;;;3.15;;
21611;SDS011;47005;52.292;13.452;2022-10-16T02:04:46;8.32;;;3.85;;
21611;SDS011;47005;52.292;13.452;2022-10-16T02:07:16;5.47;;;3.55;;
21611;SDS011;47005;52.292;13.452;2022-10-16T02:09:42;7.18;;;4.22;;
21611;SDS011;47005;52.292;13.452;2022-10-16T02:12:10;8.90;;;3.30;;
21611;SDS011;47005;52.292;13.452;2022-10-16T02:14:44;6.25;;;3.50;;
21611;SDS011;47005;52.292;13.452;2022-10-16T02:17:10;4.65;;;3.22;;
21611;SDS011;47005;52.292;13.452;2022-10-16T02:19:37;6.45;;;2.75;;
21611;SDS011;47005;52.292;13.452;2022-10-16T02:22:03;8.98;;;3.08;;
21611;SDS011;47005;52.292;13.452;2022-10-16T02:29:49;6.82;;;2.85;;
21611;SDS011;47005;52.292;13.452;2022-10-16T02:32:23;4.15;;;2.60;;
21611;SDS011;47005;52.292;13.452;2022-10-16T02:34:52;4.07;;;2.75;;
21611;SDS011;47005;52.292;13.452;2022-10-16T02:37:19;3.85;;;2.35;;
21611;SDS011;47005;52.292;13.452;2022-10-16T02:39:44;3.70;;;2.55;;
21611;SDS011;47005;52.292;13.452;2022-10-16T02:42:13;4.90;;;2.53;;
21611;SDS011;47005;52.292;13.452;2022-10-16T02:44:39;4.28;;;2.10;;
21611;SDS011;47005;52.292;13.452;2022-10-16T02:47:05;8.50;;;2.22;;
21611;SDS011;47005;52.292;13.452;2022-10-16T02:49:31;5.00;;;2.60;;
21611;SDS011;47005;52.292;13.452;2022-10-16T02:51:56;4.60;;;3.25;;
21611;SDS011;47005;52.292;13.452;2022-10-16T02:54:22;8.07;;;3.28;;
21611;SDS011;47005;52.292;13.452;2022-10-16T02:56:48;7.78;;;3.67;;
21611;SDS011;47005;52.292;13.452;2022-10-16T02:59:14;4.45;;;2.60;;
21611;SDS011;47005;52.292;13.452;2022-10-16T03:01:40;4.80;;;2.55;;
21611;SDS011;47005;52.292;13.452;2022-10-16T03:04:06;3.88;;;2.20;;
21611;SDS011;47005;52.292;13.452;2022-10-16T03:06:31;4.95;;;2.50;;
21611;SDS011;47005;52.292;13.452;2022-10-16T03:08:57;3.22;;;2.15;;
21611;SDS011;47005;52.292;13.452;2022-10-16T03:11:22;3.50;;;1.80;;
21611;SDS011;47005;52.292;13.452;2022-10-16T03:13:48;5.53;;;2.38;;
21611;SDS011;47005;52.292;13.452;2022-10-16T03:16:13;6.22;;;1.92;;
21611;SDS011;47005;52.292;13.452;2022-10-16T03:18:39;5.85;;;2.22;;
21611;SDS011;47005;52.292;13.452;2022-10-16T03:21:05;2.55;;;1.70;;
21611;SDS011;47005;52.292;13.452;2022-10-16T03:23:30;5.53;;;1.67;;
21611;SDS011;47005;52.292;13.452;2022-10-16T03:25:56;4.47;;;1.60;;
21611;SDS011;47005;52.292;13.452;2022-10-16T03:28:21;3.50;;;2.03;;
21611;SDS011;47005;52.292;13.452;2022-10-16T03:30:47;4.80;;;2.00;;
21611;SDS011;47005;52.292;13.452;2022-10-16T03:33:12;2.42;;;1.55;;
21611;SDS011;47005;52.292;13.452;2022-10-16T03:35:38;2.28;;;1.58;;
21611;SDS011;47005;52.292;13.452;2022-10-16T03:38:03;3.50;;;1.60;;
21611;SDS011;47005;52.292;13.452;2022-10-16T03:40:29;2.42;;;1.38;;
21611;SDS011;47005;52.292;13.452;2022-10-16T03:42:57;3.67;;;1.52;;
21611;SDS011;47005;52.292;13.452;2022-10-16T03:45:23;5.72;;;1.40;;
21611;SDS011;47005;52.292;13.452;2022-10-16T03:47:49;4.95;;;1.98;;
21611;SDS011;47005;52.292;13.452;2022-10-16T03:50:14;7.13;;;2.10;;
21611;SDS011;47005;52.292;13.452;2022-10-16T03:52:40;4.10;;;2.22;;
21611;SDS011;47005;52.292;13.452;2022-10-16T03:55:05;4.65;;;2.47;;
21611;SDS011;47005;52.292;13.452;2022-10-16T03:57:32;4.13;;;2.15;;
21611;SDS011;47005;52.292;13.452;2022-10-16T03:59:57;5.55;;;2.42;;
21611;SDS011;47005;52.292;13.452;2022-10-16T04:02:23;8.13;;;2.70;;
21611;SDS011;47005;52.292;13.452;2022-10-16T04:04:48;5.55;;;1.95;;
21611;SDS011;47005;52.292;13.452;2022-10-16T04:07:14;2.70;;;1.48;;
21611;SDS011;47005;52.292;13.452;2022-10-16T04:09:39;4.63;;;1.88;;
21611;SDS011;47005;52.292;13.452;2022-10-16T04:12:05;4.13;;;1.80;;
21611;SDS011;47005;52.292;13.452;2022-10-16T04:14:31;4.35;;;1.88;;
21611;SDS011;47005;52.292;13.452;2022-10-16T04:16:56;3.38;;;1.67;;
21611;SDS011;47005;52.292;13.452;2022-10-16T04:19:22;3.08;;;1.92;;
21611;SDS011;47005;52.292;13.452;2022-10-16T04:21:47;2.08;;;1.42;;
21611;SDS011;47005;52.292;13.452;2022-10-16T04:24:13;2.47;;;1.27;;
21611;SDS011;47005;52.292;13.452;2022-10-16T04:26:38;1.95;;;1.35;;
21611;SDS011;47005;52.292;13.452;2022-10-16T04:29:04;2.53;;;1.50;;
21611;SDS011;47005;52.292;13.452;2022-10-16T04:31:31;4.45;;;1.42;;
21611;SDS011;47005;52.292;13.452;2022-10-16T04:33:56;2.28;;;1.48;;
21611;SDS011;47005;52.292;13.452;2022-10-16T04:36:22;1.88;;;1.10;;
21611;SDS011;47005;52.292;13.452;2022-10-16T04:38:47;5.68;;;1.60;;
21611;SDS011;47005;52.292;13.452;2022-10-16T04:41:13;4.32;;;1.60;;
21611;SDS011;47005;52.292;13.452;2022-10-16T04:43:38;3.83;;;1.75;;
21611;SDS011;47005;52.292;13.452;2022-10-16T04:46:04;2.92;;;1.70;;
21611;SDS011;47005;52.292;13.452;2022-10-16T04:48:30;5.28;;;2.10;;
21611;SDS011;47005;52.292;13.452;2022-10-16T04:50:56;3.42;;;2.05;;
21611;SDS011;47005;52.292;13.452;2022-10-16T04:53:22;2.70;;;1.65;;
21611;SDS011;47005;52.292;13.452;2022-10-16T04:55:48;3.15;;;1.80;;
21611;SDS011;47005;52.292;13.452;2022-10-16T04:58:14;3.75;;;1.88;;
21611;SDS011;47005;52.292;13.452;2022-10-16T05:00:39;3.47;;;2.05;;
21611;SDS011;47005;52.292;13.452;2022-10-16T05:03:05;6.30;;;2.35;;
21611;SDS011;47005;52.292;13.452;2022-10-16T05:05:33;4.18;;;2.40;;
21611;SDS011;47005;52.292;13.452;2022-10-16T05:07:59;3.85;;;2.08;;
21611;SDS011;47005;52.292;13.452;2022-10-16T05:10:25;4.18;;;2.05;;
21611;SDS011;47005;52.292;13.452;2022-10-16T05:12:51;8.50;;;1.83;;
21611;SDS011;47005;52.292;13.452;2022-10-16T05:15:16;6.35;;;1.75;;
21611;SDS011;47005;52.292;13.452;2022-10-16T05:17:42;4.20;;;2.17;;
21611;SDS011;47005;52.292;13.452;2022-10-16T05:20:08;4.18;;;1.83;;
21611;SDS011;47005;52.292;13.452;2022-10-16T05:22:33;4.35;;;1.88;;
21611;SDS011;47005;52.292;13.452;2022-10-16T05:24:59;3.92;;;2.00;;
21611;SDS011;47005;52.292;13.452;2022-10-16T05:27:24;4.07;;;2.28;;
21611;SDS011;47005;52.292;13.452;2022-10-16T05:29:50;2.65;;;1.70;;
21611;SDS011;47005;52.292;13.452;2022-10-16T05:32:16;3.67;;;1.85;;
21611;SDS011;47005;52.292;13.452;2022-10-16T05:34:43;2.70;;;1.75;;
21611;SDS011;47005;52.292;13.452;2022-10-16T05:37:09;2.95;;;1.67;;
21611;SDS011;47005;52.292;13.452;2022-10-16T05:39:36;5.15;;;1.70;;
21611;SDS011;47005;52.292;13.452;2022-10-16T05:42:02;2.25;;;1.35;;
21611;SDS011;47005;52.292;13.452;2022-10-16T05:44:28;2.70;;;1.55;;
21611;SDS011;47005;52.292;13.452;2022-10-16T05:46:54;2.00;;;1.33;;
21611;SDS011;47005;52.292;13.452;2022-10-16T05:49:20;3.10;;;1.42;;
21611;SDS011;47005;52.292;13.452;2022-10-16T05:51:45;4.35;;;1.65;;
21611;SDS011;47005;52.292;13.452;2022-10-16T05:54:11;6.63;;;2.03;;
21611;SDS011;47005;52.292;13.452;2022-10-16T05:56:36;9.68;;;1.60;;
21611;SDS011;47005;52.292;13.452;2022-10-16T05:59:05;2.40;;;1.30;;
21611;SDS011;47005;52.292;13.452;2022-10-16T06:01:31;3.92;;;1.38;;
21611;SDS011;47005;52.292;13.452;2022-10-16T06:03:57;3.63;;;1.50;;
21611;SDS011;47005;52.292;13.452;2022-10-16T06:06:23;4.18;;;2.15;;
21611;SDS011;47005;52.292;13.452;2022-10-16T06:08:51;6.43;;;2.78;;
21611;SDS011;47005;52.292;13.452;2022-10-16T06:11:21;4.70;;;2.63;;
21611;SDS011;47005;52.292;13.452;2022-10-16T06:13:52;5.07;;;2.58;;
21611;SDS011;47005;52.292;13.452;2022-10-16T06:16:18;6.32;;;2.47;;
21611;SDS011;47005;52.292;13.452;2022-10-16T06:18:45;7.93;;;2.50;;
21611;SDS011;47005;52.292;13.452;2022-10-16T06:21:16;2.97;;;2.08;;
21611;SDS011;47005;52.292;13.452;2022-10-16T06:23:43;6.53;;;2.10;;
21611;SDS011;47005;52.292;13.452;2022-10-16T06:26:11;3.97;;;2.22;;
21611;SDS011;47005;52.292;13.452;2022-10-16T06:28:39;4.03;;;2.53;;
21611;SDS011;47005;52.292;13.452;2022-10-16T06:31:05;4.22;;;2.25;;
21611;SDS011;47005;52.292;13.452;2022-10-16T06:33:32;6.97;;;2.65;;
21611;SDS011;47005;52.292;13.452;2022-10-16T06:36:05;8.75;;;3.10;;
21611;SDS011;47005;52.292;13.452;2022-10-16T06:38:35;4.72;;;2.60;;
21611;SDS011;47005;52.292;13.452;2022-10-16T06:41:02;5.93;;;3.13;;
21611;SDS011;47005;52.292;13.452;2022-10-16T06:43:28;5.75;;;2.75;;
21611;SDS011;47005;52.292;13.452;2022-10-16T06:45:57;8.30;;;3.78;;
21611;SDS011;47005;52.292;13.452;2022-10-16T06:48:27;8.30;;;4.30;;
21611;SDS011;47005;52.292;13.452;2022-10-16T06:53:25;7.88;;;3.83;;
21611;SDS011;47005;52.292;13.452;2022-10-16T06:55:52;7.70;;;3.67;;
21611;SDS011;47005;52.292;13.452;2022-10-16T06:58:18;7.00;;;4.35;;
21611;SDS011;47005;52.292;13.452;2022-10-16T07:00:43;13.13;;;4.25;;
21611;SDS011;47005;52.292;13.452;2022-10-16T07:03:09;5.97;;;3.05;;
21611;SDS011;47005;52.292;13.452;2022-10-16T07:05:41;4.80;;;3.40;;
21611;SDS011;47005;52.292;13.452;2022-10-16T07:08:08;3.70;;;2.28;;
21611;SDS011;47005;52.292;13.452;2022-10-16T07:10:33;7.13;;;2.90;;
21611;SDS011;47005;52.292;13.452;2022-10-16T07:12:59;4.90;;;2.10;;
21611;SDS011;47005;52.292;13.452;2022-10-16T07:15:26;3.72;;;2.42;;
21611;SDS011;47005;52.292;13.452;2022-10-16T07:17:52;7.20;;;3.05;;
21611;SDS011;47005;52.292;13.452;2022-10-16T07:20:17;6.55;;;3.30;;
21611;SDS011;47005;52.292;13.452;2022-10-16T07:22:44;4.05;;;2.33;;
21611;SDS011;47005;52.292;13.452;2022-10-16T07:25:09;3.03;;;2.00;;
21611;SDS011;47005;52.292;13.452;2022-10-16T07:27:36;2.25;;;1.33;;
21611;SDS011;47005;52.292;13.452;2022-10-16T07:30:01;6.13;;;1.33;;
21611;SDS011;47005;52.292;13.452;2022-10-16T07:32:27;1.77;;;1.25;;
21611;SDS011;47005;52.292;13.452;2022-10-16T07:34:53;2.28;;;1.40;;
21611;SDS011;47005;52.292;13.452;2022-10-16T07:37:20;2.38;;;1.45;;
21611;SDS011;47005;52.292;13.452;2022-10-16T07:39:46;1.73;;;1.35;;
21611;SDS011;47005;52.292;13.452;2022-10-16T07:42:12;2.75;;;1.48;;
21611;SDS011;47005;52.292;13.452;2022-10-16T07:44:37;2.05;;;1.38;;
21611;SDS011;47005;52.292;13.452;2022-10-16T07:47:06;7.80;;;1.92;;
21611;SDS011;47005;52.292;13.452;2022-10-16T07:49:32;2.72;;;1.52;;
21611;SDS011;47005;52.292;13.452;2022-10-16T07:51:57;1.52;;;1.13;;
21611;SDS011;47005;52.292;13.452;2022-10-16T07:54:23;6.57;;;1.20;;
21611;SDS011;47005;52.292;13.452;2022-10-16T07:56:49;1.67;;;1.02;;
21611;SDS011;47005;52.292;13.452;2022-10-16T07:59:14;5.50;;;1.45;;
21611;SDS011;47005;52.292;13.452;2022-10-16T08:01:40;2.78;;;1.13;;
21611;SDS011;47005;52.292;13.452;2022-10-16T08:04:07;2.17;;;1.30;;
21611;SDS011;47005;52.292;13.452;2022-10-16T08:06:37;1.80;;;1.20;;
21611;SDS011;47005;52.292;13.452;2022-10-16T08:09:05;3.65;;;1.13;;
21611;SDS011;47005;52.292;13.452;2022-10-16T08:11:31;5.00;;;1.05;;
21611;SDS011;47005;52.292;13.452;2022-10-16T08:13:58;2.63;;;1.65;;
21611;SDS011;47005;52.292;13.452;2022-10-16T08:16:23;2.08;;;1.20;;
21611;SDS011;47005;52.292;13.452;2022-10-16T08:18:49;1.35;;;0.95;;
21611;SDS011;47005;52.292;13.452;2022-10-16T08:21:17;2.58;;;1.10;;
21611;SDS011;47005;52.292;13.452;2022-10-16T08:23:44;2.08;;;1.10;;
21611;SDS011;47005;52.292;13.452;2022-10-16T08:26:10;2.25;;;1.10;;
21611;SDS011;47005;52.292;13.452;2022-10-16T08:28:37;1.45;;;1.02;;
21611;SDS011;47005;52.292;13.452;2022-10-16T08:31:09;2.35;;;0.90;;
21611;SDS011;47005;52.292;13.452;2022-10-16T08:33:38;1.35;;;0.95;;
21611;SDS011;47005;52.292;13.452;2022-10-16T08:36:05;1.02;;;0.85;;
21611;SDS011;47005;52.292;13.452;2022-10-16T08:38:31;2.38;;;0.98;;
21611;SDS011;47005;52.292;13.452;2022-10-16T08:41:02;1.42;;;1.10;;
21611;SDS011;47005;52.292;13.452;2022-10-16T08:49:58;3.95;;;1.20;;
21611;SDS011;47005;52.292;13.452;2022-10-16T08:52:29;1.23;;;0.90;;
21611;SDS011;47005;52.292;13.452;2022-10-16T08:54:58;2.40;;;1.00;;
21611;SDS011;47005;52.292;13.452;2022-10-16T08:57:25;1.55;;;1.05;;
21611;SDS011;47005;52.292;13.452;2022-10-16T08:59:53;1.15;;;0.88;;
21611;SDS011;47005;52.292;13.452;2022-10-16T09:02:38;2.42;;;1.15;;
21611;SDS011;47005;52.292;13.452;2022-10-16T09:07:51;5.30;;;1.10;;
21611;SDS011;47005;52.292;13.452;2022-10-16T09:13:16;1.90;;;0.95;;
21611;SDS011;47005;52.292;13.452;2022-10-16T09:21:31;4.50;;;1.10;;
21611;SDS011;47005;52.292;13.452;2022-10-16T09:26:39;10.57;;;1.27;;
21611;SDS011;47005;52.292;13.452;2022-10-16T09:29:04;3.28;;;1.50;;
21611;SDS011;47005;52.292;13.452;2022-10-16T09:31:30;1.48;;;0.90;;
21611;SDS011;47005;52.292;13.452;2022-10-16T09:33:59;1.27;;;1.00;;
21611;SDS011;47005;52.292;13.452;2022-10-16T09:36:30;2.13;;;1.00;;
21611;SDS011;47005;52.292;13.452;2022-10-16T09:39:06;2.75;;;1.38;;
21611;SDS011;47005;52.292;13.452;2022-10-16T09:41:34;1.70;;;1.02;;
21611;SDS011;47005;52.292;13.452;2022-10-16T09:44:02;3.45;;;1.23;;
21611;SDS011;47005;52.292;13.452;2022-10-16T09:46:37;2.65;;;1.30;;
21611;SDS011;47005;52.292;13.452;2022-10-16T09:49:16;2.72;;;1.17;;
21611;SDS011;47005;52.292;13.452;2022-10-16T09:51:47;3.05;;;1.08;;
21611;SDS011;47005;52.292;13.452;2022-10-16T09:54:14;1.55;;;1.17;;
21611;SDS011;47005;52.292;13.452;2022-10-16T09:56:45;2.88;;;1.20;;
21611;SDS011;47005;52.292;13.452;2022-10-16T10:01:49;4.60;;;1.42;;
21611;SDS011;47005;52.292;13.452;2022-10-16T10:04:16;1.50;;;0.82;;
21611;SDS011;47005;52.292;13.452;2022-10-16T10:06:47;2.92;;;1.48;;
21611;SDS011;47005;52.292;13.452;2022-10-16T10:11:48;2.30;;;1.40;;
21611;SDS011;47005;52.292;13.452;2022-10-16T10:16:47;2.33;;;1.33;;
21611;SDS011;47005;52.292;13.452;2022-10-16T10:19:15;3.08;;;1.63;;
21611;SDS011;47005;52.292;13.452;2022-10-16T10:21:43;1.58;;;1.20;;
21611;SDS011;47005;52.292;13.452;2022-10-16T10:24:12;1.20;;;1.10;;
21611;SDS011;47005;52.292;13.452;2022-10-16T10:26:39;4.47;;;0.98;;
21611;SDS011;47005;52.292;13.452;2022-10-16T10:31:48;2.22;;;1.30;;
21611;SDS011;47005;52.292;13.452;2022-10-16T10:37:40;6.80;;;2.42;;
21611;SDS011;47005;52.292;13.452;2022-10-16T10:48:06;1.58;;;0.85;;
21611;SDS011;47005;52.292;13.452;2022-10-16T10:50:49;1.45;;;0.85;;
21611;SDS011;47005;52.292;13.452;2022-10-16T10:56:02;3.60;;;1.08;;
21611;SDS011;47005;52.292;13.452;2022-10-16T11:01:14;1.13;;;0.80;;
21611;SDS011;47005;52.292;13.452;2022-10-16T11:06:36;4.05;;;0.63;;
21611;SDS011;47005;52.292;13.452;2022-10-16T11:09:18;1.75;;;0.95;;
21611;SDS011;47005;52.292;13.452;2022-10-16T11:12:11;1.45;;;0.70;;
21611;SDS011;47005;52.292;13.452;2022-10-16T11:14:43;1.27;;;0.90;;
21611;SDS011;47005;52.292;13.452;2022-10-16T11:17:12;8.65;;;0.90;;
21611;SDS011;47005;52.292;13.452;2022-10-16T11:22:30;1.52;;;0.68;;
21611;SDS011;47005;52.292;13.452;2022-10-16T11:27:49;1.20;;;0.80;;
21611;SDS011;47005;52.292;13.452;2022-10-16T11:30:22;3.78;;;0.90;;
21611;SDS011;47005;52.292;13.452;2022-10-16T11:35:39;1.08;;;0.55;;
21611;SDS011;47005;52.292;13.452;2022-10-16T11:38:12;1.60;;;0.85;;
21611;SDS011;47005;52.292;13.452;2022-10-16T11:40:43;1.02;;;0.57;;
21611;SDS011;47005;52.292;13.452;2022-10-16T11:43:14;1.10;;;0.63;;
21611;SDS011;47005;52.292;13.452;2022-10-16T11:45:49;4.78;;;0.68;;
21611;SDS011;47005;52.292;13.452;2022-10-16T11:56:23;0.68;;;0.60;;
21611;SDS011;47005;52.292;13.452;2022-10-16T12:02:20;2.17;;;0.57;;
21611;SDS011;47005;52.292;13.452;2022-10-16T12:05:04;0.70;;;0.70;;
21611;SDS011;47005;52.292;13.452;2022-10-16T12:07:54;0.93;;;0.73;;
21611;SDS011;47005;52.292;13.452;2022-10-16T12:10:38;0.90;;;0.60;;
21611;SDS011;47005;52.292;13.452;2022-10-16T12:13:26;0.60;;;0.50;;
21611;SDS011;47005;52.292;13.452;2022-10-16T12:16:04;0.95;;;0.50;;
21611;SDS011;47005;52.292;13.452;2022-10-16T12:18:29;0.70;;;0.50;;
21611;SDS011;47005;52.292;13.452;2022-10-16T12:20:58;6.68;;;1.00;;
21611;SDS011;47005;52.292;13.452;2022-10-16T12:23:30;1.40;;;0.70;;
21611;SDS011;47005;52.292;13.452;2022-10-16T12:26:00;1.63;;;0.70;;
21611;SDS011;47005;52.292;13.452;2022-10-16T12:28:31;0.55;;;0.43;;
21611;SDS011;47005;52.292;13.452;2022-10-16T12:31:06;0.73;;;0.50;;
21611;SDS011;47005;52.292;13.452;2022-10-16T12:33:37;1.05;;;0.60;;
21611;SDS011;47005;52.292;13.452;2022-10-16T12:36:09;0.52;;;0.52;;
21611;SDS011;47005;52.292;13.452;2022-10-16T12:38:49;0.77;;;0.50;;
21611;SDS011;47005;52.292;13.452;2022-10-16T12:41:26;1.52;;;0.65;;
21611;SDS011;47005;52.292;13.452;2022-10-16T12:43:56;0.60;;;0.60;;
21611;SDS011;47005;52.292;13.452;2022-10-16T12:51:39;3.78;;;0.60;;
21611;SDS011;47005;52.292;13.452;2022-10-16T13:13:13;0.77;;;0.50;;
21611;SDS011;47005;52.292;13.452;2022-10-16T13:18:32;1.67;;;0.68;;
21611;SDS011;47005;52.292;13.452;2022-10-16T13:21:22;3.85;;;1.48;;
21611;SDS011;47005;52.292;13.452;2022-10-16T13:24:25;1.73;;;0.70;;
21611;SDS011;47005;52.292;13.452;2022-10-16T13:27:05;0.70;;;0.60;;
21611;SDS011;47005;52.292;13.452;2022-10-16T13:29:43;1.65;;;0.80;;
21611;SDS011;47005;52.292;13.452;2022-10-16T13:32:09;1.10;;;0.65;;
21611;SDS011;47005;52.292;13.452;2022-10-16T13:34:45;6.45;;;0.98;;
21611;SDS011;47005;52.292;13.452;2022-10-16T13:37:17;1.88;;;0.90;;
21611;SDS011;47005;52.292;13.452;2022-10-16T13:39:43;3.63;;;0.88;;
21611;SDS011;47005;52.292;13.452;2022-10-16T13:42:10;0.65;;;0.50;;
21611;SDS011;47005;52.292;13.452;2022-10-16T13:44:41;3.22;;;0.80;;
21611;SDS011;47005;52.292;13.452;2022-10-16T13:47:28;5.78;;;0.90;;
21611;SDS011;47005;52.292;13.452;2022-10-16T13:50:04;0.73;;;0.60;;
21611;SDS011;47005;52.292;13.452;2022-10-16T13:52:36;1.92;;;0.90;;
21611;SDS011;47005;52.292;13.452;2022-10-16T13:55:03;0.93;;;0.60;;
21611;SDS011;47005;52.292;13.452;2022-10-16T13:57:29;0.80;;;0.70;;
21611;SDS011;47005;52.292;13.452;2022-10-16T13:59:55;0.80;;;0.60;;
21611;SDS011;47005;52.292;13.452;2022-10-16T14:04:49;0.93;;;0.80;;
21611;SDS011;47005;52.292;13.452;2022-10-16T14:07:18;1.38;;;1.00;;
21611;SDS011;47005;52.292;13.452;2022-10-16T14:09:49;5.72;;;1.10;;
21611;SDS011;47005;52.292;13.452;2022-10-16T14:12:16;1.17;;;0.70;;
21611;SDS011;47005;52.292;13.452;2022-10-16T14:14:47;2.03;;;1.23;;
21611;SDS011;47005;52.292;13.452;2022-10-16T14:17:33;2.58;;;1.45;;
21611;SDS011;47005;52.292;13.452;2022-10-16T14:20:02;1.95;;;1.15;;
21611;SDS011;47005;52.292;13.452;2022-10-16T14:22:32;1.55;;;0.80;;
21611;SDS011;47005;52.292;13.452;2022-10-16T14:30:25;2.80;;;1.05;;
21611;SDS011;47005;52.292;13.452;2022-10-16T14:32:53;4.05;;;1.52;;
21611;SDS011;47005;52.292;13.452;2022-10-16T14:37:54;3.67;;;1.20;;
21611;SDS011;47005;52.292;13.452;2022-10-16T14:40:22;1.88;;;1.10;;
21611;SDS011;47005;52.292;13.452;2022-10-16T14:42:50;2.78;;;1.02;;
21611;SDS011;47005;52.292;13.452;2022-10-16T14:45:20;1.35;;;0.75;;
21611;SDS011;47005;52.292;13.452;2022-10-16T14:47:49;2.33;;;1.05;;
21611;SDS011;47005;52.292;13.452;2022-10-16T14:50:17;3.15;;;0.70;;
21611;SDS011;47005;52.292;13.452;2022-10-16T14:52:43;4.00;;;0.85;;
21611;SDS011;47005;52.292;13.452;2022-10-16T14:55:09;1.45;;;0.80;;
21611;SDS011;47005;52.292;13.452;2022-10-16T14:57:35;1.90;;;0.75;;
21611;SDS011;47005;52.292;13.452;2022-10-16T15:00:04;1.73;;;1.20;;
21611;SDS011;47005;52.292;13.452;2022-10-16T15:02:41;3.25;;;0.90;;
21611;SDS011;47005;52.292;13.452;2022-10-16T15:05:18;1.35;;;0.88;;
21611;SDS011;47005;52.292;13.452;2022-10-16T15:07:48;1.55;;;1.05;;
21611;SDS011;47005;52.292;13.452;2022-10-16T15:10:15;0.95;;;0.85;;
21611;SDS011;47005;52.292;13.452;2022-10-16T15:12:44;2.88;;;0.90;;
21611;SDS011;47005;52.292;13.452;2022-10-16T15:17:52;0.95;;;0.80;;
21611;SDS011;47005;52.292;13.452;2022-10-16T15:20:20;1.38;;;0.73;;
21611;SDS011;47005;52.292;13.452;2022-10-16T15:22:47;2.70;;;1.00;;
21611;SDS011;47005;52.292;13.452;2022-10-16T15:28:07;3.63;;;0.85;;
21611;SDS011;47005;52.292;13.452;2022-10-16T15:30:34;1.63;;;1.05;;
21611;SDS011;47005;52.292;13.452;2022-10-16T15:33:01;2.05;;;1.10;;
21611;SDS011;47005;52.292;13.452;2022-10-16T15:35:27;1.55;;;0.90;;
21611;SDS011;47005;52.292;13.452;2022-10-16T15:37:53;2.88;;;1.13;;
21611;SDS011;47005;52.292;13.452;2022-10-16T15:40:19;4.13;;;1.15;;
21611;SDS011;47005;52.292;13.452;2022-10-16T15:42:45;0.88;;;0.70;;
21611;SDS011;47005;52.292;13.452;2022-10-16T15:45:12;1.85;;;0.75;;
21611;SDS011;47005;52.292;13.452;2022-10-16T15:47:39;1.70;;;0.82;;
21611;SDS011;47005;52.292;13.452;2022-10-16T15:50:06;1.33;;;0.88;;
21611;SDS011;47005;52.292;13.452;2022-10-16T15:52:32;2.10;;;1.02;;
21611;SDS011;47005;52.292;13.452;2022-10-16T15:54:58;1.50;;;0.90;;
21611;SDS011;47005;52.292;13.452;2022-10-16T15:57:24;1.50;;;0.93;;
21611;SDS011;47005;52.292;13.452;2022-10-16T15:59:50;5.60;;;1.30;;
21611;SDS011;47005;52.292;13.452;2022-10-16T16:02:15;1.52;;;1.00;;
21611;SDS011;47005;52.292;13.452;2022-10-16T16:04:41;2.85;;;1.30;;
21611;SDS011;47005;52.292;13.452;2022-10-16T16:07:07;2.53;;;1.42;;
21611;SDS011;47005;52.292;13.452;2022-10-16T16:09:32;2.90;;;1.52;;
21611;SDS011;47005;52.292;13.452;2022-10-16T16:11:58;2.50;;;1.52;;
21611;SDS011;47005;52.292;13.452;2022-10-16T16:14:25;2.42;;;1.38;;
21611;SDS011;47005;52.292;13.452;2022-10-16T16:16:53;9.50;;;1.60;;
21611;SDS011;47005;52.292;13.452;2022-10-16T16:19:19;3.40;;;1.70;;
21611;SDS011;47005;52.292;13.452;2022-10-16T16:21:46;3.33;;;1.58;;
21611;SDS011;47005;52.292;13.452;2022-10-16T16:24:14;2.70;;;1.80;;
21611;SDS011;47005;52.292;13.452;2022-10-16T16:26:40;4.57;;;1.60;;
21611;SDS011;47005;52.292;13.452;2022-10-16T16:29:09;2.60;;;1.63;;
21611;SDS011;47005;52.292;13.452;2022-10-16T16:31:38;4.88;;;2.13;;
21611;SDS011;47005;52.292;13.452;2022-10-16T16:34:04;4.55;;;1.80;;
21611;SDS011;47005;52.292;13.452;2022-10-16T16:36:29;4.82;;;2.03;;
21611;SDS011;47005;52.292;13.452;2022-10-16T16:38:56;7.72;;;1.98;;
21611;SDS011;47005;52.292;13.452;2022-10-16T16:41:23;4.20;;;1.98;;
21611;SDS011;47005;52.292;13.452;2022-10-16T16:43:50;3.05;;;1.45;;
21611;SDS011;47005;52.292;13.452;2022-10-16T16:46:17;5.63;;;1.65;;
21611;SDS011;47005;52.292;13.452;2022-10-16T16:48:44;3.75;;;1.70;;